Time;durP1;ratioP1;P1;durP2;ratioP2;P2;SDS_P1;SDS_P2;PMS_P1;PMS_P2;Temp;Humidity;BMP_temperature;BMP_pressure;BME280_temperature;BME280_humidity;BME280_pressure;Samples;Min_cycle;Max_cycle;Signal;HPM_P1;HPM_P2
2021/07/28 00:01:19;;;;;;;8.75;5.65;;;21.80;99.90;;;;;;4163906;28;20057;-76
2021/07/28 00:03:23;;;;;;;8.90;5.70;;;21.80;99.90;;;;;;4165782;28;20063;-76
2021/07/28 00:05:27;;;;;;;10.27;5.22;;;21.80;99.90;;;;;;4164415;28;20489;-76
2021/07/28 00:07:30;;;;;;;8.57;5.60;;;21.80;99.90;;;;;;4165635;28;20053;-76
2021/07/28 00:09:34;;;;;;;6.57;4.97;;;21.70;99.90;;;;;;4165688;28;20062;-75
2021/07/28 00:11:37;;;;;;;8.32;4.78;;;21.60;99.90;;;;;;4165537;28;20061;-76
2021/07/28 00:13:41;;;;;;;8.38;5.45;;;21.60;99.90;;;;;;4165581;28;20498;-76
2021/07/28 00:15:44;;;;;;;6.95;4.75;;;21.60;99.90;;;;;;4165343;28;20057;-76
2021/07/28 00:17:50;;;;;;;9.70;4.97;;;21.60;99.90;;;;;;4165530;28;20049;-76
2021/07/28 00:24:19;;;;;;;7.90;4.18;;;21.50;99.90;;;;;;4165483;28;20057;-76
2021/07/28 00:26:22;;;;;;;5.32;4.15;;;21.50;99.90;;;;;;4164948;28;20059;-76
2021/07/28 00:28:25;;;;;;;5.75;4.43;;;21.60;99.90;;;;;;4165421;28;20064;-77
2021/07/28 00:30:28;;;;;;;6.43;4.97;;;21.50;99.90;;;;;;4165483;28;20060;-76
2021/07/28 00:32:31;;;;;;;6.13;4.53;;;21.50;99.90;;;;;;4165296;28;20064;-76
2021/07/28 00:34:34;;;;;;;7.20;4.13;;;21.40;99.90;;;;;;4165202;28;20420;-76
2021/07/28 00:36:37;;;;;;;6.30;3.70;;;21.30;99.90;;;;;;4165195;28;20064;-75
2021/07/28 00:38:42;;;;;;;8.65;4.38;;;21.30;99.90;;;;;;4164807;28;20486;-76
2021/07/28 00:40:45;;;;;;;8.30;4.35;;;21.30;99.90;;;;;;4165023;28;20060;-75
2021/07/28 00:42:48;;;;;;;9.32;3.95;;;21.30;99.90;;;;;;4165006;28;20061;-75
2021/07/28 00:44:51;;;;;;;9.25;4.20;;;21.20;99.90;;;;;;4165332;28;20060;-75
2021/07/28 00:46:54;;;;;;;7.28;3.67;;;21.20;99.90;;;;;;4165232;28;20068;-77
2021/07/28 00:48:58;;;;;;;10.43;4.07;;;21.20;99.90;;;;;;4164930;28;20409;-75
2021/07/28 00:51:01;;;;;;;8.32;3.25;;;21.20;99.90;;;;;;4165274;28;20072;-74
2021/07/28 00:53:04;;;;;;;12.20;3.42;;;21.00;99.90;;;;;;4165067;28;20058;-73
2021/07/28 00:55:09;;;;;;;6.78;3.10;;;21.00;99.90;;;;;;4164895;28;20065;-75
2021/07/28 00:57:13;;;;;;;8.02;3.50;;;21.00;99.90;;;;;;4164901;28;20064;-74
2021/07/28 00:59:16;;;;;;;8.30;3.53;;;21.00;99.90;;;;;;4165062;28;20490;-74
2021/07/28 01:01:22;;;;;;;5.50;3.17;;;21.00;99.90;;;;;;4164898;28;20049;-74
2021/07/28 01:03:26;;;;;;;13.25;3.90;;;20.90;99.90;;;;;;4164993;28;20057;-74
2021/07/28 01:05:30;;;;;;;7.85;3.50;;;21.00;99.90;;;;;;4164607;28;20513;-74
2021/07/28 01:07:33;;;;;;;9.60;3.80;;;21.00;99.90;;;;;;4164780;28;20544;-75
2021/07/28 01:09:36;;;;;;;8.48;3.72;;;21.00;99.90;;;;;;4164848;28;20066;-77
2021/07/28 01:11:40;;;;;;;5.45;3.33;;;20.90;99.90;;;;;;4164416;28;20053;-75
2021/07/28 01:13:43;;;;;;;5.88;3.00;;;21.00;99.90;;;;;;4164687;28;20068;-74
2021/07/28 01:15:49;;;;;;;5.57;3.70;;;21.00;99.90;;;;;;4164620;28;20457;-75
2021/07/28 01:17:52;;;;;;;8.20;3.55;;;20.80;99.90;;;;;;4164651;28;20077;-74
2021/07/28 01:20:01;;;;;;;7.80;3.30;;;20.80;99.90;;;;;;4164449;28;20053;-74
2021/07/28 01:22:04;;;;;;;11.32;3.55;;;20.70;99.90;;;;;;4164369;28;20057;-74
2021/07/28 01:24:10;;;;;;;7.40;3.60;;;20.60;99.90;;;;;;4164370;28;20409;-75
2021/07/28 01:26:14;;;;;;;8.35;3.47;;;20.70;99.90;;;;;;4164576;28;20061;-74
2021/07/28 01:28:18;;;;;;;8.45;3.95;;;20.70;99.90;;;;;;4164403;28;20057;-75
2021/07/28 01:30:21;;;;;;;8.95;3.97;;;20.70;99.90;;;;;;4164487;28;20064;-74
2021/07/28 01:32:25;;;;;;;11.43;4.07;;;20.60;99.90;;;;;;4164298;28;20058;-74
2021/07/28 01:34:28;;;;;;;11.70;3.63;;;20.50;99.90;;;;;;4164518;28;20060;-74
2021/07/28 01:36:32;;;;;;;6.93;3.40;;;20.50;99.90;;;;;;4164124;28;20069;-75
2021/07/28 01:38:35;;;;;;;10.38;3.53;;;20.50;99.90;;;;;;4164368;28;20069;-75
2021/07/28 01:40:39;;;;;;;8.63;3.72;;;20.50;99.90;;;;;;4164345;28;20049;-75
2021/07/28 01:42:44;;;;;;;7.40;3.50;;;20.50;99.90;;;;;;4164446;28;20049;-75
2021/07/28 01:44:47;;;;;;;5.38;3.53;;;20.50;99.90;;;;;;4164406;28;20548;-76
2021/07/28 01:46:50;;;;;;;7.10;3.50;;;20.50;99.90;;;;;;4163912;28;20054;-75
2021/07/28 01:48:53;;;;;;;10.98;3.45;;;20.60;99.90;;;;;;4164402;28;20057;-75
2021/07/28 01:50:57;;;;;;;9.77;3.97;;;20.60;99.90;;;;;;4163760;28;20667;-77
2021/07/28 01:53:01;;;;;;;6.00;3.53;;;20.60;99.90;;;;;;4164218;28;20064;-75
2021/07/28 01:55:07;;;;;;;10.93;3.70;;;20.60;99.90;;;;;;4164174;28;20418;-75
2021/07/28 01:57:29;;;;;;;11.80;3.58;;;20.60;99.90;;;;;;4164071;28;20529;-75
2021/07/28 01:59:40;;;;;;;11.50;3.60;;;20.50;99.90;;;;;;4164101;28;20136;-75
2021/07/28 02:01:43;;;;;;;7.80;3.30;;;20.40;99.90;;;;;;4164097;28;20148;-77
2021/07/28 02:03:46;;;;;;;9.05;3.13;;;20.30;99.90;;;;;;4164022;28;20401;-77
2021/07/28 02:05:49;;;;;;;7.05;3.00;;;20.30;99.90;;;;;;4163800;28;20072;-75
2021/07/28 02:07:52;;;;;;;11.65;3.33;;;20.40;99.90;;;;;;4163604;28;20062;-74
2021/07/28 02:09:56;;;;;;;11.35;3.53;;;20.50;99.90;;;;;;4163593;28;20060;-77
2021/07/28 02:11:59;;;;;;;9.60;3.33;;;20.50;99.90;;;;;;4163851;28;20489;-74
2021/07/28 02:14:03;;;;;;;11.27;3.42;;;20.50;99.90;;;;;;4163683;28;20057;-75
2021/07/28 02:16:07;;;;;;;7.82;3.17;;;20.50;99.90;;;;;;4163769;28;20054;-74
2021/07/28 02:18:10;;;;;;;7.90;3.15;;;20.40;99.90;;;;;;4163556;28;20057;-76
2021/07/28 02:20:14;;;;;;;11.52;3.72;;;20.40;99.90;;;;;;4163675;28;20049;-75
2021/07/28 02:22:17;;;;;;;13.65;3.60;;;20.40;99.90;;;;;;4163597;28;20530;-75
2021/07/28 02:24:20;;;;;;;10.30;3.03;;;20.30;99.90;;;;;;4162895;28;20056;-76
2021/07/28 02:26:23;;;;;;;11.13;3.45;;;20.30;99.90;;;;;;4162137;28;20064;-75
2021/07/28 02:28:26;;;;;;;10.05;3.65;;;20.30;99.90;;;;;;4163436;28;20400;-75
2021/07/28 02:30:31;;;;;;;15.52;4.07;;;20.20;99.90;;;;;;4163393;28;20054;-76
2021/07/28 02:32:34;;;;;;;14.35;3.22;;;20.10;99.90;;;;;;4163838;28;20057;-75
2021/07/28 02:34:37;;;;;;;12.48;4.20;;;20.10;99.90;;;;;;4163497;28;20060;-75
2021/07/28 02:36:40;;;;;;;12.27;3.35;;;20.00;99.90;;;;;;4163665;28;20058;-77
2021/07/28 02:38:43;;;;;;;7.13;3.00;;;20.10;99.90;;;;;;4163054;28;20489;-76
2021/07/28 02:40:46;;;;;;;12.50;3.50;;;20.10;99.90;;;;;;4162886;28;20445;-76
2021/07/28 02:42:49;;;;;;;7.10;3.20;;;20.10;99.90;;;;;;4163040;28;20060;-75
2021/07/28 02:44:53;;;;;;;9.13;2.70;;;20.20;99.90;;;;;;4162864;28;20052;-75
2021/07/28 02:46:57;;;;;;;10.18;3.45;;;20.10;99.90;;;;;;4162291;28;20084;-74
2021/07/28 02:49:00;;;;;;;10.98;3.72;;;20.10;99.90;;;;;;4162473;28;20054;-77
2021/07/28 02:51:03;;;;;;;9.32;3.22;;;20.20;99.90;;;;;;4162346;28;20543;-75
2021/07/28 02:53:06;;;;;;;8.52;3.53;;;20.30;99.90;;;;;;4162463;28;20050;-75
2021/07/28 02:55:11;;;;;;;12.63;3.33;;;20.30;99.90;;;;;;4162348;28;20140;-75
2021/07/28 02:57:14;;;;;;;13.77;3.42;;;20.30;99.90;;;;;;4162396;28;20512;-78
2021/07/28 02:59:17;;;;;;;12.00;3.30;;;20.30;99.90;;;;;;4162527;28;20498;-76
2021/07/28 03:01:20;;;;;;;11.77;3.30;;;20.20;99.90;;;;;;4162466;28;20386;-78
2021/07/28 03:03:24;;;;;;;10.95;2.80;;;20.10;99.90;;;;;;4162397;28;20045;-75
2021/07/28 03:05:27;;;;;;;10.60;3.55;;;20.20;99.90;;;;;;4162540;28;20670;-74
2021/07/28 03:07:33;;;;;;;13.00;3.30;;;20.20;99.90;;;;;;4161250;28;20060;-76
2021/07/28 03:09:37;;;;;;;12.32;3.05;;;20.20;99.90;;;;;;4162268;28;20050;-77
2021/07/28 03:11:40;;;;;;;9.32;3.00;;;20.20;99.90;;;;;;4162238;28;20049;-76
2021/07/28 03:13:43;;;;;;;15.60;3.65;;;20.20;99.90;;;;;;4162497;28;20055;-77
2021/07/28 03:15:49;;;;;;;8.93;2.97;;;20.30;99.90;;;;;;4161134;28;20059;-76
2021/07/28 03:17:53;;;;;;;9.15;3.35;;;20.20;99.90;;;;;;4162080;28;20080;-76
2021/07/28 03:19:57;;;;;;;11.25;3.05;;;20.20;99.90;;;;;;4162343;28;20064;-77
2021/07/28 03:22:00;;;;;;;14.63;3.33;;;20.20;99.90;;;;;;4162248;28;20647;-77
2021/07/28 03:24:03;;;;;;;12.30;3.08;;;20.00;99.90;;;;;;4162365;28;20647;-76
2021/07/28 03:26:07;;;;;;;15.52;3.03;;;20.00;99.90;;;;;;4162045;28;20057;-76
2021/07/28 03:28:10;;;;;;;13.00;3.22;;;20.10;99.90;;;;;;4161998;28;20502;-76
2021/07/28 03:30:13;;;;;;;13.00;3.75;;;20.10;99.90;;;;;;4162012;28;20072;-77
2021/07/28 03:32:16;;;;;;;10.57;3.72;;;20.10;99.90;;;;;;4161973;28;20050;-77
2021/07/28 03:34:19;;;;;;;7.90;3.05;;;20.10;99.90;;;;;;4161939;28;20417;-77
2021/07/28 03:36:23;;;;;;;16.45;3.50;;;20.10;99.90;;;;;;4161882;28;20565;-77
2021/07/28 03:38:27;;;;;;;13.38;3.30;;;20.10;99.90;;;;;;4161966;28;20510;-76
2021/07/28 03:40:30;;;;;;;15.32;3.15;;;20.10;99.90;;;;;;4162496;28;20057;-77
2021/07/28 03:42:33;;;;;;;11.57;3.35;;;20.10;99.90;;;;;;4162826;28;20057;-77
2021/07/28 03:44:36;;;;;;;11.43;3.28;;;20.10;99.90;;;;;;4162815;28;20060;-77
2021/07/28 03:46:39;;;;;;;8.25;2.75;;;20.00;99.90;;;;;;4162690;28;20574;-76
2021/07/28 03:48:42;;;;;;;9.65;3.22;;;20.10;99.90;;;;;;4162733;28;20079;-77
2021/07/28 03:50:45;;;;;;;10.65;3.28;;;20.00;99.90;;;;;;4162401;28;20062;-74
2021/07/28 03:52:50;;;;;;;16.30;3.35;;;20.10;99.90;;;;;;4162490;28;20110;-74
2021/07/28 03:54:53;;;;;;;12.82;3.05;;;20.20;99.90;;;;;;4162610;28;20053;-75
2021/07/28 03:56:56;;;;;;;10.60;3.00;;;20.20;99.90;;;;;;4162292;28;20053;-75
2021/07/28 03:58:59;;;;;;;22.45;3.75;;;20.30;99.90;;;;;;4162470;28;20053;-75
2021/07/28 04:01:02;;;;;;;9.93;2.97;;;20.20;99.90;;;;;;4162377;28;20061;-75
2021/07/28 04:03:05;;;;;;;12.43;3.15;;;20.00;99.90;;;;;;4162712;28;20068;-74
2021/07/28 04:05:09;;;;;;;18.48;4.10;;;19.90;99.90;;;;;;4162546;28;20425;-74
2021/07/28 04:07:12;;;;;;;14.77;3.83;;;20.00;99.90;;;;;;4162506;28;20061;-74
2021/07/28 04:09:17;;;;;;;17.15;3.58;;;20.00;99.90;;;;;;4162094;28;20133;-74
2021/07/28 04:11:20;;;;;;;16.40;4.00;;;20.10;99.90;;;;;;4162674;28;20058;-74
2021/07/28 04:13:23;;;;;;;9.63;3.22;;;20.10;99.90;;;;;;4162470;28;20056;-75
2021/07/28 04:15:26;;;;;;;11.95;3.10;;;20.10;99.90;;;;;;4162306;28;20055;-75
2021/07/28 04:17:29;;;;;;;7.47;3.05;;;20.10;99.90;;;;;;4162161;28;20057;-74
2021/07/28 04:19:32;;;;;;;17.08;3.30;;;20.10;99.90;;;;;;4162056;28;20053;-76
2021/07/28 04:21:36;;;;;;;17.45;3.42;;;19.90;99.90;;;;;;4160950;28;20103;-75
2021/07/28 04:23:39;;;;;;;12.35;3.38;;;19.80;99.90;;;;;;4162142;28;20068;-75
2021/07/28 04:25:43;;;;;;;15.18;2.90;;;19.80;99.90;;;;;;4162198;28;20057;-75
2021/07/28 04:27:46;;;;;;;10.85;2.30;;;19.80;99.90;;;;;;4161967;28;20053;-75
2021/07/28 04:29:51;;;;;;;8.80;2.55;;;19.70;99.90;;;;;;4162123;28;20049;-76
2021/07/28 04:31:54;;;;;;;12.75;2.67;;;19.80;99.90;;;;;;4162227;28;20057;-75
2021/07/28 04:33:57;;;;;;;14.63;3.60;;;19.80;99.90;;;;;;4161894;28;20054;-75
2021/07/28 04:36:00;;;;;;;9.52;3.10;;;19.80;99.90;;;;;;4162349;28;20060;-75
2021/07/28 04:38:03;;;;;;;14.77;2.97;;;19.90;99.90;;;;;;4162126;28;20061;-75
2021/07/28 04:40:07;;;;;;;11.48;3.03;;;19.90;99.90;;;;;;4161884;28;20049;-75
2021/07/28 04:42:11;;;;;;;14.93;3.33;;;20.00;99.90;;;;;;4162022;28;20064;-75
2021/07/28 04:44:14;;;;;;;8.80;3.08;;;20.10;99.90;;;;;;4162036;28;20056;-75
2021/07/28 04:46:18;;;;;;;8.25;3.00;;;19.80;99.90;;;;;;4162470;28;20045;-76
2021/07/28 04:48:21;;;;;;;11.25;2.88;;;19.80;99.90;;;;;;4164770;28;20533;-75
2021/07/28 04:50:24;;;;;;;12.32;3.13;;;19.90;99.90;;;;;;4165113;28;20068;-74
2021/07/28 04:52:27;;;;;;;10.73;3.17;;;19.70;99.90;;;;;;4164903;28;20054;-75
2021/07/28 04:54:30;;;;;;;11.00;3.10;;;19.70;99.90;;;;;;4165073;28;20060;-75
2021/07/28 04:56:33;;;;;;;8.45;2.38;;;19.70;99.90;;;;;;4165131;28;20474;-75
2021/07/28 04:58:38;;;;;;;8.82;2.70;;;19.70;99.90;;;;;;4164738;28;20156;-75
2021/07/28 05:00:41;;;;;;;9.48;3.13;;;19.70;99.90;;;;;;4165109;28;20148;-77
2021/07/28 05:02:44;;;;;;;7.80;2.58;;;19.70;99.90;;;;;;4165094;28;20060;-77
2021/07/28 05:04:47;;;;;;;9.23;3.17;;;19.70;99.90;;;;;;4163736;28;20064;-74
2021/07/28 05:06:50;;;;;;;10.25;2.97;;;19.80;99.90;;;;;;4164784;28;20068;-75
2021/07/28 05:08:53;;;;;;;11.82;2.88;;;19.80;99.90;;;;;;4164623;28;20073;-77
2021/07/28 05:10:56;;;;;;;9.57;2.72;;;19.70;99.90;;;;;;4164863;28;20045;-76
2021/07/28 05:12:59;;;;;;;11.18;2.80;;;19.70;99.90;;;;;;4164703;28;20401;-76
2021/07/28 05:15:05;;;;;;;9.93;2.90;;;19.90;99.90;;;;;;4164895;28;20065;-76
2021/07/28 05:17:08;;;;;;;12.45;3.38;;;19.80;99.90;;;;;;4164328;28;20054;-76
2021/07/28 05:19:11;;;;;;;12.50;2.80;;;19.80;99.90;;;;;;4164855;28;20061;-76
2021/07/28 05:21:14;;;;;;;10.25;2.78;;;19.80;99.90;;;;;;4164533;28;20421;-76
2021/07/28 05:23:17;;;;;;;9.95;2.70;;;19.70;99.90;;;;;;4164747;28;20072;-76
2021/07/28 05:25:20;;;;;;;15.25;2.85;;;19.70;99.90;;;;;;4164706;28;20054;-76
2021/07/28 05:27:23;;;;;;;10.15;3.10;;;19.80;99.90;;;;;;4164749;28;20395;-77
2021/07/28 05:29:27;;;;;;;12.57;2.75;;;19.90;99.90;;;;;;4164392;28;20448;-77
2021/07/28 05:31:32;;;;;;;8.95;2.40;;;19.90;99.90;;;;;;4164575;28;20054;-77
2021/07/28 05:33:35;;;;;;;8.23;2.47;;;20.00;99.90;;;;;;4164210;28;20058;-75
2021/07/28 05:35:38;;;;;;;10.32;3.22;;;20.00;99.90;;;;;;4164195;28;20413;-76
2021/07/28 05:37:41;;;;;;;9.75;2.50;;;19.90;99.90;;;;;;4163983;28;20064;-76
2021/07/28 05:39:44;;;;;;;10.63;3.35;;;19.90;99.90;;;;;;4164131;28;20581;-76
2021/07/28 05:41:47;;;;;;;11.93;3.22;;;19.90;99.90;;;;;;4164338;28;20049;-76
2021/07/28 05:43:50;;;;;;;8.57;2.60;;;19.90;99.90;;;;;;4164248;28;20053;-76
2021/07/28 05:45:53;;;;;;;9.27;3.10;;;20.00;99.90;;;;;;4163005;28;20049;-76
2021/07/28 05:47:58;;;;;;;9.77;2.88;;;20.10;99.90;;;;;;4163906;28;20068;-76
2021/07/28 05:50:01;;;;;;;16.10;3.30;;;20.10;99.90;;;;;;4163836;28;20064;-75
2021/07/28 05:52:04;;;;;;;12.80;3.50;;;20.10;99.90;;;;;;4163785;28;20054;-76
2021/07/28 05:54:07;;;;;;;15.77;3.40;;;20.10;99.90;;;;;;4164009;28;20063;-75
2021/07/28 05:56:10;;;;;;;10.52;3.17;;;20.10;99.90;;;;;;4163823;28;20063;-76
2021/07/28 05:58:13;;;;;;;8.35;2.53;;;20.10;99.90;;;;;;4163089;28;20516;-76
2021/07/28 06:00:16;;;;;;;10.63;3.15;;;20.10;99.90;;;;;;4163783;28;20624;-76
2021/07/28 06:02:19;;;;;;;18.02;3.10;;;20.10;99.90;;;;;;4162680;28;20053;-76
2021/07/28 06:04:24;;;;;;;10.65;2.85;;;20.10;99.90;;;;;;4163692;28;20053;-76
2021/07/28 06:06:27;;;;;;;16.55;3.05;;;20.10;99.90;;;;;;4163899;28;20057;-76
2021/07/28 06:08:30;;;;;;;10.35;2.65;;;20.10;99.90;;;;;;4163914;28;20060;-76
2021/07/28 06:10:33;;;;;;;11.10;3.05;;;20.10;99.90;;;;;;4163590;28;20053;-76
2021/07/28 06:12:36;;;;;;;13.18;2.55;;;20.20;99.90;;;;;;4162237;28;20061;-76
2021/07/28 06:14:39;;;;;;;20.88;3.10;;;20.00;99.90;;;;;;4163951;28;20053;-77
2021/07/28 06:16:42;;;;;;;11.57;2.63;;;19.90;99.90;;;;;;4163654;28;20650;-76
2021/07/28 06:18:45;;;;;;;14.32;3.40;;;19.90;99.90;;;;;;4163821;28;20080;-76
2021/07/28 06:20:51;;;;;;;20.23;3.85;;;20.00;99.90;;;;;;4163632;28;20063;-76
2021/07/28 06:22:53;;;;;;;;;;;20.00;99.90;;;;;;4164147;28;20057;-76
2021/07/28 06:24:56;;;;;;;13.45;2.70;;;20.00;99.90;;;;;;4163450;28;20406;-77
2021/07/28 06:26:59;;;;;;;12.52;3.20;;;20.00;99.90;;;;;;4163755;28;20054;-76
2021/07/28 06:29:02;;;;;;;14.73;2.60;;;20.10;99.90;;;;;;4162539;28;20556;-76
2021/07/28 06:31:05;;;;;;;8.52;2.80;;;20.00;99.90;;;;;;4163331;28;20255;-76
2021/07/28 06:33:08;;;;;;;11.68;2.67;;;20.10;99.90;;;;;;4163294;28;20417;-77
2021/07/28 06:35:12;;;;;;;12.35;2.97;;;20.00;99.90;;;;;;4161883;28;20061;-76
2021/07/28 06:37:16;;;;;;;13.93;2.80;;;20.10;99.90;;;;;;4163301;28;20386;-77
2021/07/28 06:39:19;;;;;;;19.33;3.45;;;20.20;99.90;;;;;;4162990;28;20057;-76
2021/07/28 06:41:22;;;;;;;14.55;2.70;;;20.30;99.90;;;;;;4163037;28;20523;-77
2021/07/28 06:43:25;;;;;;;11.82;2.83;;;20.30;99.90;;;;;;4163413;28;20057;-78
2021/07/28 06:45:28;;;;;;;16.70;2.88;;;20.30;99.90;;;;;;4163192;28;20137;-77
2021/07/28 06:47:33;;;;;;;16.92;3.20;;;20.30;99.90;;;;;;4162986;28;20053;-77
2021/07/28 06:49:36;;;;;;;11.95;3.03;;;20.40;99.90;;;;;;4163046;28;20067;-78
2021/07/28 06:51:39;;;;;;;13.57;2.92;;;20.50;99.90;;;;;;4163233;28;20053;-77
2021/07/28 06:53:43;;;;;;;18.88;3.38;;;20.50;99.90;;;;;;4163057;28;20531;-78
2021/07/28 06:55:46;;;;;;;19.15;3.22;;;20.50;99.90;;;;;;4163051;28;20053;-76
2021/07/28 06:57:49;;;;;;;18.08;3.17;;;20.60;99.90;;;;;;4162940;28;20058;-76
2021/07/28 06:59:52;;;;;;;20.55;3.03;;;20.50;99.90;;;;;;4162871;28;20738;-76
2021/07/28 07:01:55;;;;;;;14.75;3.47;;;20.50;99.90;;;;;;4162687;28;20442;-76
2021/07/28 07:03:59;;;;;;;11.43;2.65;;;20.50;99.90;;;;;;4161401;28;20401;-76
2021/07/28 07:06:02;;;;;;;8.95;2.92;;;20.30;99.90;;;;;;4162736;28;20055;-76
2021/07/28 07:08:06;;;;;;;10.40;2.50;;;20.40;99.90;;;;;;4162996;28;20057;-76
2021/07/28 07:10:12;;;;;;;11.70;3.00;;;20.50;99.90;;;;;;4162394;28;20064;-76
2021/07/28 07:12:15;;;;;;;15.68;2.50;;;20.50;99.90;;;;;;4162767;28;20070;-76
2021/07/28 07:14:21;;;;;;;14.15;3.33;;;20.50;99.90;;;;;;4162994;28;20046;-77
2021/07/28 07:16:25;;;;;;;11.35;2.78;;;20.70;99.90;;;;;;4162761;28;20075;-77
2021/07/28 07:18:28;;;;;;;13.77;3.15;;;20.60;99.90;;;;;;4162699;28;20063;-76
2021/07/28 07:20:31;;;;;;;14.35;2.90;;;20.60;99.90;;;;;;4162681;28;20058;-76
2021/07/28 07:22:34;;;;;;;9.38;2.13;;;20.70;99.90;;;;;;4162820;28;20060;-76
2021/07/28 07:24:37;;;;;;;12.48;2.70;;;20.70;99.90;;;;;;4162840;28;20050;-77
2021/07/28 07:26:41;;;;;;;7.97;2.22;;;20.80;99.90;;;;;;4162926;28;20063;-75
2021/07/28 07:28:44;;;;;;;7.13;2.45;;;20.90;99.90;;;;;;4162916;28;20058;-76
2021/07/28 07:30:49;;;;;;;12.73;2.90;;;20.60;99.90;;;;;;4162595;28;20494;-76
2021/07/28 07:35:15;;;;;;;8.57;2.88;;;20.70;99.90;;;;;;4162437;28;20068;-76
2021/07/28 07:37:18;;;;;;;13.60;3.30;;;20.90;99.90;;;;;;4162601;28;20057;-76
2021/07/28 07:39:22;;;;;;;11.13;2.40;;;20.90;99.90;;;;;;4162316;28;20057;-76
2021/07/28 07:41:25;;;;;;;13.10;3.30;;;20.90;99.90;;;;;;4162691;28;20455;-76
2021/07/28 07:43:29;;;;;;;16.38;2.97;;;21.00;99.90;;;;;;4162293;28;20413;-76
2021/07/28 07:45:35;;;;;;;12.68;3.00;;;21.10;99.90;;;;;;4162480;28;20053;-76
2021/07/28 07:47:38;;;;;;;12.60;2.60;;;21.00;99.90;;;;;;4161263;28;20084;-76
2021/07/28 07:49:41;;;;;;;10.85;2.70;;;21.00;99.90;;;;;;4162393;28;20516;-77
2021/07/28 07:51:44;;;;;;;12.07;2.53;;;21.00;99.90;;;;;;4162609;28;20538;-76
2021/07/28 07:53:47;;;;;;;10.63;2.45;;;21.00;99.90;;;;;;4162379;28;20058;-77
2021/07/28 07:55:54;;;;;;;14.43;3.00;;;21.20;99.90;;;;;;4162666;28;20058;-76
2021/07/28 07:57:57;;;;;;;5.45;2.30;;;21.20;99.90;;;;;;4162528;28;20053;-76
2021/07/28 08:00:01;;;;;;;12.60;2.13;;;21.20;99.90;;;;;;4162413;28;20054;-75
2021/07/28 08:02:05;;;;;;;9.43;2.70;;;21.30;99.90;;;;;;4162530;28;20397;-77
2021/07/28 08:04:08;;;;;;;13.45;2.88;;;21.30;99.90;;;;;;4162476;28;20053;-76
2021/07/28 08:06:11;;;;;;;11.52;2.90;;;21.40;99.90;;;;;;4162352;28;20481;-77
2021/07/28 08:08:15;;;;;;;8.85;2.60;;;21.50;99.90;;;;;;4162356;28;20053;-78
2021/07/28 08:10:18;;;;;;;9.98;2.90;;;21.70;99.90;;;;;;4162440;28;20069;-77
2021/07/28 08:12:21;;;;;;;7.65;2.85;;;21.80;99.90;;;;;;4162228;28;20057;-77
2021/07/28 08:14:24;;;;;;;18.33;3.33;;;21.80;99.90;;;;;;4162321;28;20497;-76
2021/07/28 08:16:29;;;;;;;13.15;3.00;;;21.90;99.90;;;;;;4162104;28;20062;-76
2021/07/28 08:18:32;;;;;;;9.00;2.70;;;21.80;99.90;;;;;;4162471;28;20060;-76
2021/07/28 08:20:35;;;;;;;12.15;2.80;;;21.80;99.90;;;;;;4161144;28;20053;-77
2021/07/28 08:22:38;;;;;;;6.82;2.00;;;21.50;99.70;;;;;;4164583;28;20425;-76
2021/07/28 08:24:41;;;;;;;10.48;3.22;;;21.70;99.90;;;;;;4165465;28;20065;-76
2021/07/28 08:26:44;;;;;;;7.68;2.33;;;21.80;99.70;;;;;;4164238;28;20064;-76
2021/07/28 08:28:47;;;;;;;4.65;1.65;;;21.60;97.30;;;;;;4165272;28;20046;-76
2021/07/28 08:30:50;;;;;;;7.18;2.30;;;21.60;98.20;;;;;;4165475;28;20067;-76
2021/07/28 08:32:54;;;;;;;5.80;1.90;;;21.60;97.60;;;;;;4165252;28;20064;-76
2021/07/28 08:34:57;;;;;;;12.13;2.00;;;21.70;97.60;;;;;;4164269;28;20567;-76
2021/07/28 08:37:00;;;;;;;4.25;1.63;;;21.70;97.20;;;;;;4165183;28;20061;-76
2021/07/28 08:39:03;;;;;;;12.50;2.10;;;21.80;97.40;;;;;;4165113;28;20053;-77
2021/07/28 08:41:06;;;;;;;4.43;1.85;;;21.80;96.80;;;;;;4165218;28;20049;-76
2021/07/28 08:43:10;;;;;;;8.30;2.15;;;22.00;97.10;;;;;;4165383;28;20056;-77
2021/07/28 08:45:13;;;;;;;5.72;2.10;;;22.10;96.70;;;;;;4165140;28;20133;-76
2021/07/28 08:47:18;;;;;;;7.05;1.98;;;22.10;96.00;;;;;;4165157;28;20063;-77
2021/07/28 08:49:23;;;;;;;12.30;1.90;;;22.10;96.00;;;;;;4165101;28;20068;-77
2021/07/28 08:51:27;;;;;;;;;;;22.20;94.40;;;;;;4165061;28;20060;-76
2021/07/28 08:53:30;;;;;;;7.03;1.70;;;22.30;95.60;;;;;;4165735;28;19921;-75
2021/07/28 08:55:33;;;;;;;5.97;1.98;;;22.20;94.70;;;;;;4163888;28;20064;-75
2021/07/28 08:57:36;;;;;;;6.53;1.83;;;22.10;94.60;;;;;;4164754;28;20409;-75
2021/07/28 08:59:39;;;;;;;6.22;1.85;;;22.10;95.10;;;;;;4165050;28;20063;-75
2021/07/28 09:01:42;;;;;;;7.28;1.90;;;22.10;94.70;;;;;;4164686;28;20054;-76
2021/07/28 09:03:46;;;;;;;3.88;1.50;;;22.30;95.00;;;;;;4165092;28;20433;-77
2021/07/28 09:05:52;;;;;;;5.88;2.00;;;22.30;94.80;;;;;;4164695;28;20056;-75
2021/07/28 09:07:55;;;;;;;6.25;2.00;;;22.30;95.00;;;;;;4164598;28;20168;-76
2021/07/28 09:09:58;;;;;;;8.75;2.05;;;22.30;95.00;;;;;;4165145;28;20641;-76
2021/07/28 09:12:01;;;;;;;7.53;1.95;;;22.40;95.40;;;;;;4165005;28;20123;-76
2021/07/28 09:14:16;;;;;;;6.13;2.15;;;22.60;95.30;;;;;;4164850;28;20060;-76
2021/07/28 09:16:19;;;;;;;11.90;2.35;;;22.80;95.00;;;;;;4165305;28;20508;-78
2021/07/28 09:18:31;;;;;;;5.93;2.50;;;23.00;95.00;;;;;;4164564;28;20056;-77
2021/07/28 09:20:36;;;;;;;5.82;1.90;;;22.90;94.40;;;;;;4164427;28;20068;-77
2021/07/28 09:22:41;;;;;;;5.25;1.63;;;22.70;94.40;;;;;;4164457;28;20057;-75
2021/07/28 09:24:47;;;;;;;6.20;1.55;;;22.80;93.50;;;;;;4164687;28;20053;-77
2021/07/28 09:26:52;;;;;;;8.02;1.80;;;22.80;92.80;;;;;;4164549;28;20053;-77
2021/07/28 09:29:00;;;;;;;;;;;22.60;92.70;;;;;;4165244;28;20049;-77
2021/07/28 09:31:03;;;;;;;15.38;2.22;;;22.30;92.30;;;;;;4163241;28;19928;-78
2021/07/28 09:33:09;;;;;;;9.70;1.80;;;22.20;92.50;;;;;;4164091;28;20058;-77
2021/07/28 09:35:41;;;;;;;5.35;1.73;;;22.40;92.60;;;;;;4164349;28;20060;-77
2021/07/28 09:37:46;;;;;;;5.95;2.03;;;22.70;93.10;;;;;;4164470;28;20045;-74
2021/07/28 09:39:51;;;;;;;7.22;2.15;;;22.90;93.10;;;;;;4164051;28;20063;-76
2021/07/28 09:41:55;;;;;;;5.97;1.73;;;23.10;92.70;;;;;;4163369;28;20525;-75
2021/07/28 09:44:00;;;;;;;2.45;1.30;;;23.00;92.20;;;;;;4164256;28;20049;-75
2021/07/28 09:46:19;;;;;;;3.65;1.60;;;23.10;91.40;;;;;;4164203;28;20053;-77
2021/07/28 09:48:37;;;;;;;4.85;1.67;;;22.90;92.20;;;;;;4164650;28;20064;-77
2021/07/28 09:50:40;;;;;;;7.10;2.00;;;22.50;91.90;;;;;;4164911;28;20060;-77
2021/07/28 09:52:43;;;;;;;6.38;1.58;;;22.70;92.50;;;;;;4164451;28;20058;-77
2021/07/28 09:54:48;;;;;;;5.20;1.60;;;22.90;92.30;;;;;;4164406;28;20498;-77
2021/07/28 09:56:54;;;;;;;7.80;1.80;;;23.10;92.50;;;;;;4164329;28;20617;-76
2021/07/28 09:58:58;;;;;;;4.82;1.63;;;23.30;92.50;;;;;;4162693;28;20064;-78
2021/07/28 10:01:01;;;;;;;9.68;2.00;;;23.20;91.40;;;;;;4163927;28;20441;-76
2021/07/28 10:03:07;;;;;;;6.22;1.83;;;23.10;91.80;;;;;;4163717;28;20058;-77
2021/07/28 10:05:11;;;;;;;6.03;1.83;;;23.10;91.90;;;;;;4160487;28;20050;-77
2021/07/28 10:07:16;;;;;;;5.78;2.20;;;23.20;92.50;;;;;;4171547;28;20041;-77
2021/07/28 10:09:25;;;;;;;6.38;2.13;;;23.30;92.50;;;;;;4173174;28;20125;-77
2021/07/28 10:11:31;;;;;;;7.72;1.83;;;23.50;92.80;;;;;;4172948;28;20315;-77
2021/07/28 10:13:34;;;;;;;5.22;1.75;;;23.60;92.50;;;;;;4172676;28;20137;-78
2021/07/28 10:15:37;;;;;;;5.95;2.00;;;23.40;91.60;;;;;;4172713;28;20057;-75
2021/07/28 10:17:42;;;;;;;6.78;1.80;;;23.40;91.90;;;;;;4172597;28;20053;-78
2021/07/28 10:19:47;;;;;;;11.48;1.83;;;23.50;91.90;;;;;;4172596;28;20080;-78
2021/07/28 10:22:06;;;;;;;6.10;1.85;;;23.40;92.00;;;;;;4172454;28;20077;-74
2021/07/28 10:24:09;;;;;;;7.87;2.00;;;23.40;91.60;;;;;;4172635;28;20053;-77
2021/07/28 10:26:16;;;;;;;3.35;1.85;;;23.30;91.10;;;;;;4172219;28;20550;-77
2021/07/28 10:28:20;;;;;;;3.95;1.50;;;23.30;91.60;;;;;;4172419;28;20120;-76
2021/07/28 10:30:23;;;;;;;8.25;1.77;;;23.10;91.00;;;;;;4171701;28;20121;-76
2021/07/28 10:32:31;;;;;;;7.05;1.70;;;23.10;91.10;;;;;;4172486;28;20064;-75
2021/07/28 10:34:36;;;;;;;6.65;1.70;;;23.30;91.40;;;;;;4171282;28;20244;-76
2021/07/28 10:36:49;;;;;;;6.90;1.77;;;23.50;91.70;;;;;;4170647;28;20375;-75
2021/07/28 10:38:55;;;;;;;3.80;1.52;;;23.60;91.80;;;;;;4168156;28;20085;-78
2021/07/28 10:41:04;;;;;;;3.33;1.80;;;23.80;91.70;;;;;;4167949;28;20065;-78
2021/07/28 10:43:07;;;;;;;9.48;4.72;;;23.70;91.30;;;;;;4167984;28;20061;-76
2021/07/28 10:45:12;;;;;;;4.55;2.03;;;23.60;90.80;;;;;;4165732;28;20067;-74
2021/07/28 10:47:16;;;;;;;;;;;23.60;91.10;;;;;;4170745;28;20503;-76
2021/07/28 10:49:44;;;;;;;3.22;1.77;;;23.60;90.80;;;;;;4171579;28;19959;-75